Time;durP1;ratioP1;P1;durP2;ratioP2;P2;SDS_P1;SDS_P2;PMS_P1;PMS_P2;Temp;Humidity;BMP_temperature;BMP_pressure;BME280_temperature;BME280_humidity;BME280_pressure;Samples;Min_cycle;Max_cycle;Signal;HPM_P1;HPM_P2
2023/01/25 00:02:13;;;;;;;2.30;1.33;;;;;;;;;;5070850;28;20362;-83
2023/01/25 00:04:38;;;;;;;2.40;1.77;;;;;;;;;;5066403;28;20032;-82
2023/01/25 00:07:04;;;;;;;5.80;3.10;;;;;;;;;;5070396;28;20159;-84
2023/01/25 00:09:30;;;;;;;4.45;2.05;;;;;;;;;;5081007;28;20387;-83
2023/01/25 00:11:57;;;;;;;2.35;1.08;;;;;;;;;;5085595;28;20016;-82
2023/01/25 00:14:23;;;;;;;4.03;1.65;;;;;;;;;;5085945;28;20042;-83
2023/01/25 00:16:48;;;;;;;2.13;1.20;;;;;;;;;;5085491;28;20025;-82
2023/01/25 00:19:14;;;;;;;4.43;1.67;;;;;;;;;;5083772;28;20024;-81
2023/01/25 00:21:40;;;;;;;1.85;1.23;;;;;;;;;;5090031;28;20119;-82
2023/01/25 00:24:05;;;;;;;2.55;1.60;;;;;;;;;;5078486;28;20044;-80
2023/01/25 00:26:33;;;;;;;8.20;1.38;;;;;;;;;;5087728;28;20067;-81
2023/01/25 00:28:58;;;;;;;3.15;2.38;;;;;;;;;;5062124;28;20056;-80
2023/01/25 00:31:33;;;;;;;3.88;3.00;;;;;;;;;;5078657;28;20063;-83
2023/01/25 00:34:23;;;;;;;1.63;1.52;;;;;;;;;;5079601;28;20039;-81
2023/01/25 00:37:28;;;;;;;1.30;1.23;;;;;;;;;;5082946;28;20035;-80
2023/01/25 00:39:53;;;;;;;5.47;2.40;;;;;;;;;;5043965;28;20504;-79
2023/01/25 00:42:19;;;;;;;3.80;2.08;;;;;;;;;;5067637;28;20028;-80
2023/01/25 00:44:46;;;;;;;1.77;1.17;;;;;;;;;;5081010;28;20082;-80
2023/01/25 00:47:12;;;;;;;2.60;1.02;;;;;;;;;;5079461;28;20426;-81
2023/01/25 00:49:40;;;;;;;11.05;3.42;;;;;;;;;;5061923;28;20020;-81
2023/01/25 00:52:07;;;;;;;2.78;2.25;;;;;;;;;;5081338;28;20028;-80
2023/01/25 00:54:33;;;;;;;2.38;2.17;;;;;;;;;;5084657;28;20017;-80
2023/01/25 00:56:58;;;;;;;2.67;2.20;;;;;;;;;;5085289;28;20028;-81
2023/01/25 00:59:24;;;;;;;4.03;2.22;;;;;;;;;;5062789;28;20028;-81
2023/01/25 01:01:50;;;;;;;3.75;2.63;;;;;;;;;;5085631;28;20034;-81
2023/01/25 01:04:15;;;;;;;3.15;2.15;;;;;;;;;;5082119;28;20062;-80
2023/01/25 01:06:41;;;;;;;9.80;3.35;;;;;;;;;;5084071;28;20083;-81
2023/01/25 01:09:11;;;;;;;7.78;2.88;;;;;;;;;;5061336;28;20024;-80
2023/01/25 01:11:37;;;;;;;;;;;;;;;;;;5088050;28;20048;-81
2023/01/25 01:14:02;;;;;;;0.98;0.95;;;;;;;;;;5066942;28;19923;-81
2023/01/25 01:16:28;;;;;;;4.78;1.88;;;;;;;;;;5079166;28;20024;-82
2023/01/25 01:18:53;;;;;;;5.20;3.05;;;;;;;;;;5078371;28;20032;-81
2023/01/25 01:21:19;;;;;;;6.55;2.00;;;;;;;;;;5084708;28;20031;-81
2023/01/25 01:23:44;;;;;;;1.48;1.38;;;;;;;;;;5085414;28;20028;-81
2023/01/25 01:26:13;;;;;;;2.60;1.42;;;;;;;;;;5087355;28;20108;-82
2023/01/25 01:28:39;;;;;;;4.53;1.80;;;;;;;;;;5070312;28;20039;-81
2023/01/25 01:31:07;;;;;;;2.47;1.33;;;;;;;;;;5067017;28;20353;-81
2023/01/25 01:33:33;;;;;;;2.28;1.02;;;;;;;;;;5062042;28;20123;-81
2023/01/25 01:35:58;;;;;;;2.05;1.45;;;;;;;;;;5083364;28;20103;-83
2023/01/25 01:38:24;;;;;;;1.60;1.48;;;;;;;;;;5062957;28;20032;-81
2023/01/25 01:40:49;;;;;;;1.55;1.23;;;;;;;;;;5067367;28;20031;-82
2023/01/25 01:43:18;;;;;;;2.15;1.65;;;;;;;;;;5079746;28;20033;-82
2023/01/25 01:45:49;;;;;;;2.40;1.30;;;;;;;;;;5068411;28;20031;-82
2023/01/25 01:48:28;;;;;;;2.22;1.40;;;;;;;;;;5081972;28;20106;-83
2023/01/25 01:50:57;;;;;;;2.90;1.77;;;;;;;;;;5061843;28;20032;-82
2023/01/25 01:53:24;;;;;;;1.95;1.42;;;;;;;;;;5064093;28;20092;-82
2023/01/25 01:55:52;;;;;;;1.65;1.25;;;;;;;;;;5067474;28;20024;-82
2023/01/25 01:58:19;;;;;;;4.25;2.65;;;;;;;;;;5063657;28;20492;-83
2023/01/25 02:00:44;;;;;;;3.45;2.30;;;;;;;;;;5060746;28;20063;-81
2023/01/25 02:03:10;;;;;;;4.10;1.65;;;;;;;;;;5081188;28;20032;-81
2023/01/25 02:05:54;;;;;;;1.50;1.35;;;;;;;;;;5078513;28;20025;-81
2023/01/25 02:08:20;;;;;;;2.40;1.95;;;;;;;;;;5082266;28;20032;-81
2023/01/25 02:10:49;;;;;;;2.70;1.95;;;;;;;;;;5065499;28;20365;-82
2023/01/25 02:13:15;;;;;;;2.08;1.52;;;;;;;;;;5064548;28;20025;-82
2023/01/25 02:15:44;;;;;;;1.48;1.38;;;;;;;;;;5080796;28;20021;-82
2023/01/25 02:18:10;;;;;;;2.08;1.80;;;;;;;;;;5065987;28;20070;-82
2023/01/25 02:20:38;;;;;;;5.30;2.13;;;;;;;;;;5078863;28;20034;-82
2023/01/25 02:23:11;;;;;;;1.80;0.88;;;;;;;;;;5087145;28;20442;-81
2023/01/25 02:25:37;;;;;;;4.15;2.00;;;;;;;;;;5066636;28;20036;-81
2023/01/25 02:28:17;;;;;;;0.90;0.90;;;;;;;;;;5084666;28;20017;-82
2023/01/25 02:30:43;;;;;;;2.30;1.08;;;;;;;;;;5079355;28;20110;-82
2023/01/25 02:33:08;;;;;;;4.20;1.67;;;;;;;;;;5081160;28;20045;-81
2023/01/25 02:35:50;;;;;;;1.23;1.10;;;;;;;;;;5085360;28;20020;-82
2023/01/25 02:38:18;;;;;;;0.98;0.95;;;;;;;;;;5084980;28;20370;-82
2023/01/25 02:41:10;;;;;;;4.25;2.33;;;;;;;;;;5086855;28;20033;-81
2023/01/25 02:43:36;;;;;;;2.30;1.35;;;;;;;;;;5039282;28;20060;-81
2023/01/25 02:46:19;;;;;;;1.55;1.42;;;;;;;;;;5084374;28;20137;-82
2023/01/25 02:48:45;;;;;;;0.75;0.73;;;;;;;;;;5081060;28;20048;-83
2023/01/25 02:51:11;;;;;;;1.92;1.35;;;;;;;;;;5061178;28;20062;-83
2023/01/25 02:53:36;;;;;;;1.55;1.10;;;;;;;;;;5086679;28;20364;-82
2023/01/25 02:56:03;;;;;;;0.82;0.82;;;;;;;;;;5080481;28;20022;-82
2023/01/25 02:58:28;;;;;;;0.75;0.60;;;;;;;;;;5085601;28;20380;-83
2023/01/25 03:00:55;;;;;;;1.10;1.08;;;;;;;;;;5079869;28;20024;-82
2023/01/25 03:03:20;;;;;;;0.98;0.77;;;;;;;;;;5078305;28;20035;-83
2023/01/25 03:05:46;;;;;;;0.52;0.52;;;;;;;;;;5079283;28;20024;-82
2023/01/25 03:08:11;;;;;;;1.40;1.20;;;;;;;;;;5064603;28;20059;-82
2023/01/25 03:10:36;;;;;;;1.67;0.98;;;;;;;;;;5082726;28;20082;-81
2023/01/25 03:13:02;;;;;;;1.45;1.05;;;;;;;;;;5056772;28;20462;-82
2023/01/25 03:15:27;;;;;;;0.80;0.70;;;;;;;;;;5061485;28;20440;-81
2023/01/25 03:17:55;;;;;;;0.50;0.50;;;;;;;;;;5084856;28;20376;-83
2023/01/25 03:20:20;;;;;;;0.98;0.77;;;;;;;;;;5083397;28;20048;-82
2023/01/25 03:22:46;;;;;;;0.70;0.70;;;;;;;;;;5083135;28;20046;-84
2023/01/25 03:25:11;;;;;;;0.77;0.77;;;;;;;;;;5080389;28;20486;-82
2023/01/25 03:27:37;;;;;;;0.50;0.50;;;;;;;;;;5085215;28;20066;-81
2023/01/25 03:30:02;;;;;;;1.10;0.85;;;;;;;;;;5059043;28;20032;-82
2023/01/25 03:32:28;;;;;;;3.25;0.93;;;;;;;;;;5074095;28;20407;-82
2023/01/25 03:34:53;;;;;;;1.33;0.70;;;;;;;;;;5079203;28;20024;-83
2023/01/25 03:37:19;;;;;;;1.35;0.93;;;;;;;;;;5079479;28;20029;-82
2023/01/25 03:39:44;;;;;;;2.58;1.02;;;;;;;;;;5075480;28;20396;-81
2023/01/25 03:42:09;;;;;;;1.55;1.20;;;;;;;;;;5062298;28;20032;-81
2023/01/25 03:44:35;;;;;;;0.80;0.80;;;;;;;;;;5079380;28;20075;-81
2023/01/25 03:47:00;;;;;;;0.95;0.85;;;;;;;;;;5084163;28;20082;-81
2023/01/25 03:49:26;;;;;;;1.23;1.15;;;;;;;;;;5056328;28;20029;-82
2023/01/25 03:51:52;;;;;;;1.45;1.08;;;;;;;;;;5059301;28;20097;-82
2023/01/25 03:54:17;;;;;;;2.42;0.75;;;;;;;;;;5081194;28;20582;-81
2023/01/25 03:56:43;;;;;;;1.85;1.27;;;;;;;;;;5078829;28;20464;-81
2023/01/25 03:59:10;;;;;;;2.08;0.88;;;;;;;;;;5077362;28;20028;-82
2023/01/25 04:01:35;;;;;;;1.42;0.90;;;;;;;;;;5061529;28;20112;-81
2023/01/25 04:04:00;;;;;;;3.83;1.55;;;;;;;;;;5058631;28;20104;-81
2023/01/25 04:06:26;;;;;;;2.70;1.35;;;;;;;;;;5059426;28;20086;-83
2023/01/25 04:08:51;;;;;;;1.83;1.45;;;;;;;;;;5075891;28;20027;-79
2023/01/25 04:11:17;;;;;;;0.68;0.68;;;;;;;;;;5066822;28;20032;-81
2023/01/25 04:13:42;;;;;;;0.68;0.50;;;;;;;;;;5076371;28;20484;-81
2023/01/25 04:16:12;;;;;;;1.35;1.05;;;;;;;;;;5077744;28;20060;-81
2023/01/25 04:18:38;;;;;;;1.00;1.00;;;;;;;;;;5083863;28;20020;-80
2023/01/25 04:21:04;;;;;;;1.58;1.48;;;;;;;;;;5075760;28;20036;-80
2023/01/25 04:23:30;;;;;;;1.60;0.98;;;;;;;;;;5085580;28;20055;-81
2023/01/25 04:26:00;;;;;;;1.50;1.35;;;;;;;;;;5059342;28;20032;-81
2023/01/25 04:28:27;;;;;;;2.28;1.45;;;;;;;;;;5077490;28;20074;-81
2023/01/25 04:30:54;;;;;;;4.68;1.48;;;;;;;;;;5075407;28;20036;-81
2023/01/25 04:33:19;;;;;;;3.35;2.20;;;;;;;;;;5083372;28;20034;-83
2023/01/25 04:35:45;;;;;;;2.15;1.15;;;;;;;;;;5084957;28;20020;-81
2023/01/25 04:38:11;;;;;;;2.15;1.00;;;;;;;;;;5058883;28;20515;-81
2023/01/25 04:40:36;;;;;;;0.90;0.85;;;;;;;;;;5080778;28;20058;-82
2023/01/25 04:43:02;;;;;;;1.15;1.05;;;;;;;;;;5079022;28;20070;-82
2023/01/25 04:45:28;;;;;;;0.70;0.68;;;;;;;;;;5069180;28;20077;-82
2023/01/25 04:48:01;;;;;;;1.35;1.25;;;;;;;;;;5069929;28;20476;-81
2023/01/25 04:50:26;;;;;;;1.85;1.75;;;;;;;;;;5060073;28;20111;-82
2023/01/25 04:52:52;;;;;;;0.82;0.82;;;;;;;;;;5077198;28;20056;-82
2023/01/25 04:55:19;;;;;;;1.48;0.93;;;;;;;;;;5081415;28;20115;-82
2023/01/25 04:57:44;;;;;;;0.90;0.90;;;;;;;;;;5081045;28;20036;-84
2023/01/25 05:00:11;;;;;;;1.15;1.05;;;;;;;;;;5081931;28;20022;-82
2023/01/25 05:02:38;;;;;;;1.02;0.98;;;;;;;;;;5077604;28;20033;-81
2023/01/25 05:05:04;;;;;;;1.45;1.35;;;;;;;;;;5057877;28;20022;-80
2023/01/25 05:07:29;;;;;;;1.23;1.10;;;;;;;;;;5057113;28;20026;-81
2023/01/25 05:09:55;;;;;;;0.52;0.52;;;;;;;;;;5056006;28;20735;-80
2023/01/25 05:12:20;;;;;;;1.70;0.75;;;;;;;;;;5075323;28;20021;-81
2023/01/25 05:14:46;;;;;;;2.65;1.70;;;;;;;;;;5073621;28;20031;-80
2023/01/25 05:17:11;;;;;;;0.85;0.85;;;;;;;;;;5054740;28;20028;-83
2023/01/25 05:19:36;;;;;;;2.30;1.02;;;;;;;;;;5072671;28;20111;-81
2023/01/25 05:22:06;;;;;;;2.50;1.50;;;;;;;;;;5073205;28;20059;-81
2023/01/25 05:24:33;;;;;;;1.27;1.17;;;;;;;;;;5085688;28;20101;-80
2023/01/25 05:26:59;;;;;;;1.17;0.88;;;;;;;;;;5072410;28;20506;-81
2023/01/25 05:29:28;;;;;;;2.45;1.33;;;;;;;;;;5078348;28;20124;-81
2023/01/25 05:31:54;;;;;;;2.38;1.65;;;;;;;;;;5080350;28;20032;-82
2023/01/25 05:34:20;;;;;;;1.08;0.80;;;;;;;;;;5076896;28;20028;-82
2023/01/25 05:36:45;;;;;;;1.08;1.08;;;;;;;;;;5064609;28;20106;-83
2023/01/25 05:39:10;;;;;;;1.33;1.10;;;;;;;;;;5080383;28;20111;-83
2023/01/25 05:41:36;;;;;;;1.13;0.95;;;;;;;;;;5078979;28;20020;-83
2023/01/25 05:44:01;;;;;;;0.93;0.88;;;;;;;;;;5066238;28;20032;-83
2023/01/25 05:46:27;;;;;;;2.65;2.40;;;;;;;;;;5062090;28;20059;-80
2023/01/25 05:48:58;;;;;;;1.58;1.35;;;;;;;;;;5064086;28;20055;-85
2023/01/25 05:51:24;;;;;;;1.85;1.08;;;;;;;;;;5082307;28;20094;-82
2023/01/25 05:53:49;;;;;;;4.63;2.97;;;;;;;;;;5081021;28;20488;-83
2023/01/25 05:56:15;;;;;;;2.80;2.55;;;;;;;;;;5078275;28;20051;-83
2023/01/25 05:58:41;;;;;;;0.80;0.73;;;;;;;;;;5081596;28;20035;-84
2023/01/25 06:01:07;;;;;;;3.42;2.08;;;;;;;;;;5059010;28;20133;-83
2023/01/25 06:03:33;;;;;;;2.60;2.17;;;;;;;;;;5083722;28;20097;-86
2023/01/25 06:06:01;;;;;;;2.30;1.73;;;;;;;;;;5060768;28;20024;-83
2023/01/25 06:08:28;;;;;;;3.10;1.92;;;;;;;;;;5085064;28;20465;-81
2023/01/25 06:10:54;;;;;;;1.38;1.02;;;;;;;;;;5077318;28;20139;-81
2023/01/25 06:13:21;;;;;;;2.30;1.20;;;;;;;;;;5085146;28;20099;-80
2023/01/25 06:15:56;;;;;;;2.85;1.15;;;;;;;;;;5061979;28;20098;-82
2023/01/25 06:18:23;;;;;;;2.35;1.88;;;;;;;;;;5064383;28;20016;-84
2023/01/25 06:20:49;;;;;;;1.77;1.52;;;;;;;;;;5065088;28;20373;-82
2023/01/25 06:23:14;;;;;;;3.75;2.50;;;;;;;;;;5082470;28;20034;-82
2023/01/25 06:25:40;;;;;;;2.28;1.83;;;;;;;;;;5081317;28;21720;-82
2023/01/25 06:28:05;;;;;;;1.48;1.38;;;;;;;;;;5077585;28;20410;-83
2023/01/25 06:30:31;;;;;;;2.08;1.50;;;;;;;;;;5061121;28;20048;-82
2023/01/25 06:32:57;;;;;;;1.17;1.05;;;;;;;;;;5065181;28;20375;-82
2023/01/25 06:35:22;;;;;;;1.70;1.58;;;;;;;;;;5071982;28;20031;-82
2023/01/25 06:37:48;;;;;;;2.47;1.85;;;;;;;;;;5085518;28;20107;-82
2023/01/25 06:40:16;;;;;;;2.42;1.55;;;;;;;;;;5081411;28;20031;-84
2023/01/25 06:42:42;;;;;;;1.38;1.27;;;;;;;;;;5076963;28;20090;-82
2023/01/25 06:45:10;;;;;;;1.63;1.15;;;;;;;;;;5058472;28;20439;-82
2023/01/25 06:47:36;;;;;;;1.17;1.10;;;;;;;;;;5075832;28;20028;-82
2023/01/25 06:50:01;;;;;;;2.60;2.20;;;;;;;;;;5078859;28;20016;-82
2023/01/25 06:52:27;;;;;;;2.42;1.42;;;;;;;;;;5079308;28;20028;-84
2023/01/25 06:54:52;;;;;;;3.85;1.58;;;;;;;;;;5064581;28;20050;-82
2023/01/25 06:57:18;;;;;;;2.60;1.33;;;;;;;;;;5078360;28;20034;-82
2023/01/25 06:59:43;;;;;;;3.00;2.15;;;;;;;;;;5082219;28;20390;-82
2023/01/25 07:02:15;;;;;;;4.03;1.95;;;;;;;;;;5060598;28;20486;-83
2023/01/25 07:04:41;;;;;;;5.78;1.73;;;;;;;;;;5082499;28;20065;-83
2023/01/25 07:07:09;;;;;;;2.33;1.95;;;;;;;;;;5057827;28;20472;-82
2023/01/25 07:09:35;;;;;;;2.65;2.08;;;;;;;;;;5077486;28;20031;-83
2023/01/25 07:12:03;;;;;;;1.52;1.42;;;;;;;;;;5074986;28;20020;-83
2023/01/25 07:14:29;;;;;;;3.25;2.30;;;;;;;;;;5051550;28;20025;-83
2023/01/25 07:16:55;;;;;;;2.67;1.90;;;;;;;;;;5057177;28;20111;-83
2023/01/25 07:19:21;;;;;;;2.92;1.85;;;;;;;;;;5077754;28;20491;-83
2023/01/25 07:21:46;;;;;;;3.85;2.17;;;;;;;;;;5074458;28;20508;-83
2023/01/25 07:24:17;;;;;;;3.65;1.88;;;;;;;;;;5057021;28;20049;-84
2023/01/25 07:26:43;;;;;;;4.28;2.78;;;;;;;;;;5076195;28;20032;-82
2023/01/25 07:29:12;;;;;;;3.13;2.55;;;;;;;;;;5058351;28;20032;-83
2023/01/25 07:31:38;;;;;;;3.08;2.10;;;;;;;;;;5061751;28;20491;-86
2023/01/25 07:34:03;;;;;;;5.47;2.33;;;;;;;;;;5077615;28;20040;-86
2023/01/25 07:36:29;;;;;;;5.85;2.33;;;;;;;;;;5075290;28;20494;-85
2023/01/25 07:38:56;;;;;;;3.67;2.67;;;;;;;;;;5075839;28;20129;-86
2023/01/25 07:41:23;;;;;;;3.53;1.65;;;;;;;;;;5053162;28;20021;-84
2023/01/25 07:43:49;;;;;;;3.63;2.03;;;;;;;;;;5077615;28;20036;-88
2023/01/25 07:46:15;;;;;;;3.67;2.25;;;;;;;;;;5063667;28;20461;-86
2023/01/25 07:48:46;;;;;;;1.65;1.55;;;;;;;;;;5086476;28;20399;-86
2023/01/25 07:51:18;;;;;;;4.35;3.13;;;;;;;;;;5059154;28;20110;-83
2023/01/25 07:53:43;;;;;;;6.68;4.03;;;;;;;;;;5077265;28;20024;-85
2023/01/25 07:56:11;;;;;;;2.50;2.28;;;;;;;;;;5073133;28;20465;-84
2023/01/25 07:58:37;;;;;;;8.55;4.35;;;;;;;;;;5059592;28;20434;-84
2023/01/25 08:01:10;;;;;;;2.17;1.77;;;;;;;;;;5059063;28;20107;-84
2023/01/25 08:03:36;;;;;;;2.65;2.25;;;;;;;;;;5055998;28;20024;-86
2023/01/25 08:06:04;;;;;;;3.47;1.73;;;;;;;;;;5046697;28;20074;-85
2023/01/25 08:08:32;;;;;;;2.33;1.85;;;;;;;;;;5076509;28;20120;-87
2023/01/25 08:11:00;;;;;;;3.72;1.83;;;;;;;;;;5063049;28;20468;-86
2023/01/25 08:13:25;;;;;;;2.72;1.83;;;;;;;;;;5065404;28;20443;-86
2023/01/25 08:15:54;;;;;;;7.40;2.70;;;;;;;;;;5083035;28;20056;-84
2023/01/25 08:18:20;;;;;;;6.22;3.05;;;;;;;;;;5084266;28;20112;-85
2023/01/25 08:20:46;;;;;;;5.35;4.00;;;;;;;;;;5061581;28;20115;-90
2023/01/25 08:23:21;;;;;;;5.07;3.55;;;;;;;;;;5062662;28;20025;-85
2023/01/25 08:25:46;;;;;;;3.63;2.45;;;;;;;;;;5060120;28;20124;-87
2023/01/25 08:31:32;;;;;;;3.65;3.13;;;;;;;;;;5083152;28;20032;-85
2023/01/25 08:34:00;;;;;;;5.47;2.00;;;;;;;;;;5055917;28;20063;-85
2023/01/25 08:36:29;;;;;;;5.50;3.33;;;;;;;;;;5072555;28;20025;-84
2023/01/25 08:38:57;;;;;;;4.53;3.08;;;;;;;;;;5058135;28;20032;-85
2023/01/25 08:41:23;;;;;;;4.53;1.92;;;;;;;;;;5082160;28;20089;-84
2023/01/25 08:43:53;;;;;;;4.05;2.88;;;;;;;;;;5067154;28;20040;-84
2023/01/25 08:46:20;;;;;;;3.63;2.63;;;;;;;;;;5082372;28;20403;-83
2023/01/25 08:48:45;;;;;;;8.73;2.92;;;;;;;;;;5086175;28;20040;-83
2023/01/25 08:51:12;;;;;;;3.60;2.47;;;;;;;;;;5058386;28;20028;-85
2023/01/25 08:53:37;;;;;;;12.05;7.72;;;;;;;;;;5084900;28;20036;-82
2023/01/25 08:56:05;;;;;;;11.00;5.50;;;;;;;;;;5075756;28;20024;-84
2023/01/25 08:58:31;;;;;;;7.50;5.20;;;;;;;;;;5062532;28;20024;-84
2023/01/25 09:01:36;;;;;;;;;;;;;;;;;;;;;
2023/01/25 09:11:15;;;;;;;3.70;2.47;;;;;;;;;;5012193;28;20022;-85
2023/01/25 09:13:44;;;;;;;4.32;2.45;;;;;;;;;;5057540;28;20135;-85
2023/01/25 09:16:12;;;;;;;8.23;3.30;;;;;;;;;;5081130;28;20089;-84
2023/01/25 09:18:39;;;;;;;3.75;2.92;;;;;;;;;;5081026;28;20099;-87
2023/01/25 09:21:38;;;;;;;4.93;4.00;;;;;;;;;;5079870;28;20027;-87
2023/01/25 09:24:04;;;;;;;21.38;8.00;;;;;;;;;;5082998;28;20087;-86
2023/01/25 09:26:31;;;;;;;15.05;11.02;;;;;;;;;;5080673;28;20029;-87
2023/01/25 09:28:56;;;;;;;5.13;4.55;;;;;;;;;;5067218;28;20210;-86
2023/01/25 09:31:23;;;;;;;4.10;3.05;;;;;;;;;;5069359;28;20126;-86
2023/01/25 09:33:50;;;;;;;8.02;4.10;;;;;;;;;;5065104;28;20028;-86
2023/01/25 09:36:15;;;;;;;6.00;3.55;;;;;;;;;;5065599;28;20468;-86
2023/01/25 09:38:41;;;;;;;3.75;2.58;;;;;;;;;;5081118;28;20021;-87
2023/01/25 09:41:40;;;;;;;3.95;2.92;;;;;;;;;;5066799;28;20054;-87
2023/01/25 09:44:15;;;;;;;3.73;3.10;;;;;;;;;;5060830;28;20845;-86
2023/01/25 09:46:47;;;;;;;6.53;3.95;;;;;;;;;;5066396;28;20031;-86
2023/01/25 09:49:38;;;;;;;3.88;2.97;;;;;;;;;;5067128;28;20017;-85
2023/01/25 09:52:53;;;;;;;1.75;1.65;;;;;;;;;;5060969;28;20047;-85
2023/01/25 09:55:23;;;;;;;3.63;2.67;;;;;;;;;;4993353;28;20545;-84
2023/01/25 09:57:52;;;;;;;3.88;3.20;;;;;;;;;;5070775;28;20194;-86
2023/01/25 10:00:28;;;;;;;3.15;2.55;;;;;;;;;;5059220;28;20042;-84
2023/01/25 10:03:08;;;;;;;4.10;2.63;;;;;;;;;;5075966;28;20113;-86
2023/01/25 10:05:43;;;;;;;3.38;2.53;;;;;;;;;;5074196;28;20092;-88
2023/01/25 10:08:27;;;;;;;3.03;2.72;;;;;;;;;;5060869;28;20211;-85
2023/01/25 10:11:07;;;;;;;5.50;3.38;;;;;;;;;;5060480;28;20392;-84
2023/01/25 10:13:32;;;;;;;4.65;2.55;;;;;;;;;;5076580;28;20380;-84
2023/01/25 10:16:00;;;;;;;6.75;3.35;;;;;;;;;;5075756;28;20225;-85
2023/01/25 10:18:58;;;;;;;7.60;3.03;;;;;;;;;;5061426;28;20039;-84
2023/01/25 10:21:33;;;;;;;8.38;4.82;;;;;;;;;;5068121;28;20406;-84
2023/01/25 10:24:17;;;;;;;3.95;2.63;;;;;;;;;;5063527;28;20051;-85
2023/01/25 10:26:49;;;;;;;2.70;2.42;;;;;;;;;;5066109;28;20122;-85
2023/01/25 10:29:18;;;;;;;4.28;2.42;;;;;;;;;;5059530;28;20069;-85
2023/01/25 10:31:52;;;;;;;3.33;2.55;;;;;;;;;;5058903;28;20539;-87
2023/01/25 10:34:33;;;;;;;4.63;2.83;;;;;;;;;;5056996;28;20031;-86
2023/01/25 10:37:17;;;;;;;1.65;1.55;;;;;;;;;;5067780;28;20555;-86
2023/01/25 10:39:55;;;;;;;1.60;1.50;;;;;;;;;;5061281;28;20499;-87
2023/01/25 10:42:23;;;;;;;4.35;2.70;;;;;;;;;;5066830;28;20028;-87
2023/01/25 10:44:48;;;;;;;5.40;2.90;;;;;;;;;;5080253;28;20020;-87
2023/01/25 10:47:22;;;;;;;3.45;2.75;;;;;;;;;;5084181;28;20040;-88
2023/01/25 10:49:53;;;;;;;4.18;1.85;;;;;;;;;;5081435;28;20074;-90
2023/01/25 10:52:24;;;;;;;6.50;2.95;;;;;;;;;;5067366;28;20069;-88
2023/01/25 10:55:16;;;;;;;6.78;3.50;;;;;;;;;;5083480;28;20028;-86
2023/01/25 10:58:02;;;;;;;2.45;2.22;;;;;;;;;;5060079;28;20024;-87
2023/01/25 11:00:39;;;;;;;3.35;2.83;;;;;;;;;;5066036;28;20029;-88
2023/01/25 11:03:19;;;;;;;3.67;2.20;;;;;;;;;;5076814;28;20056;-87
2023/01/25 11:05:55;;;;;;;5.50;2.75;;;;;;;;;;5064117;28;20016;-86
2023/01/25 11:08:30;;;;;;;2.65;2.17;;;;;;;;;;5080667;28;20392;-85
2023/01/25 11:10:56;;;;;;;2.65;1.92;;;;;;;;;;5061954;28;20542;-88
2023/01/25 11:13:25;;;;;;;4.57;2.50;;;;;;;;;;5061050;28;20032;-90
2023/01/25 11:16:15;;;;;;;3.43;2.70;;;;;;;;;;5057192;28;20473;-88
2023/01/25 11:18:58;;;;;;;2.15;1.98;;;;;;;;;;5066726;28;20016;-90
2023/01/25 11:21:26;;;;;;;2.45;1.80;;;;;;;;;;5071117;28;20533;-88
2023/01/25 11:24:10;;;;;;;3.20;2.45;;;;;;;;;;5062972;28;20438;-87
2023/01/25 11:26:37;;;;;;;3.85;2.65;;;;;;;;;;5062016;28;20090;-90
2023/01/25 11:29:20;;;;;;;5.20;2.78;;;;;;;;;;5065598;28;20020;-88
2023/01/25 11:31:52;;;;;;;4.03;2.55;;;;;;;;;;5086389;28;20536;-90
2023/01/25 11:34:20;;;;;;;2.20;1.23;;;;;;;;;;5073882;28;20106;-90
2023/01/25 11:37:13;;;;;;;3.65;2.53;;;;;;;;;;5066360;28;20036;-89
2023/01/25 11:40:01;;;;;;;2.28;1.52;;;;;;;;;;5059695;28;20028;-88
2023/01/25 11:42:51;;;;;;;2.03;1.58;;;;;;;;;;5068055;28;20040;-88
2023/01/25 11:45:48;;;;;;;;;;;;;;;;;;5070393;28;20472;-87
2023/01/25 11:48:46;;;;;;;1.67;1.58;;;;;;;;;;5013835;28;20273;-88
2023/01/25 11:51:19;;;;;;;3.35;2.28;;;;;;;;;;5075243;28;20180;-89
2023/01/25 11:54:03;;;;;;;2.42;2.22;;;;;;;;;;5072933;28;20103;-90
2023/01/25 11:56:47;;;;;;;2.17;1.98;;;;;;;;;;5062951;28;20020;-88
2023/01/25 11:59:18;;;;;;;2.72;1.75;;;;;;;;;;5089970;28;20027;-86
2023/01/25 12:01:52;;;;;;;1.95;1.75;;;;;;;;;;5084831;28;20016;-87
2023/01/25 12:04:45;;;;;;;2.65;2.08;;;;;;;;;;5062508;28;20081;-87
2023/01/25 12:07:35;;;;;;;2.75;1.88;;;;;;;;;;5062534;28;20064;-87
2023/01/25 12:10:16;;;;;;;2.83;2.53;;;;;;;;;;5069722;28;20077;-86
2023/01/25 12:12:50;;;;;;;1.98;1.55;;;;;;;;;;5084891;28;20078;-87
2023/01/25 12:15:35;;;;;;;3.55;2.03;;;;;;;;;;5085927;28;20055;-86
2023/01/25 12:18:39;;;;;;;2.05;1.63;;;;;;;;;;5066511;28;20032;-87
2023/01/25 12:21:22;;;;;;;2.08;1.88;;;;;;;;;;5066837;28;20020;-86
2023/01/25 12:24:08;;;;;;;3.28;1.83;;;;;;;;;;5071391;28;20552;-87
2023/01/25 12:26:49;;;;;;;3.38;2.33;;;;;;;;;;5058051;28;20104;-86
2023/01/25 12:29:23;;;;;;;2.70;2.03;;;;;;;;;;5094269;28;20024;-86
2023/01/25 12:32:08;;;;;;;2.47;1.55;;;;;;;;;;5085742;28;20038;-86
2023/01/25 12:34:46;;;;;;;2.05;1.70;;;;;;;;;;5085681;28;20416;-86
2023/01/25 12:37:14;;;;;;;2.42;1.65;;;;;;;;;;5069704;28;20490;-86
2023/01/25 12:40:04;;;;;;;2.65;2.33;;;;;;;;;;5090303;28;20032;-86
2023/01/25 12:42:56;;;;;;;2.05;1.75;;;;;;;;;;5044371;28;20040;-87
2023/01/25 12:45:25;;;;;;;2.17;1.80;;;;;;;;;;5061757;28;20033;-87
2023/01/25 12:48:01;;;;;;;3.97;2.35;;;;;;;;;;5090832;28;20035;-87
2023/01/25 12:50:33;;;;;;;2.35;2.03;;;;;;;;;;5080194;28;20110;-87
2023/01/25 12:53:23;;;;;;;4.47;2.28;;;;;;;;;;5066279;28;20071;-88
2023/01/25 12:55:49;;;;;;;3.45;2.10;;;;;;;;;;5076343;28;20350;-87
2023/01/25 12:58:33;;;;;;;2.55;2.05;;;;;;;;;;5087152;28;20114;-87
2023/01/25 13:01:04;;;;;;;2.25;1.67;;;;;;;;;;5070577;28;20044;-87
2023/01/25 13:03:36;;;;;;;1.38;1.20;;;;;;;;;;5069365;28;20065;-86
2023/01/25 13:06:21;;;;;;;1.35;1.25;;;;;;;;;;5084695;28;20027;-87
2023/01/25 13:09:00;;;;;;;2.03;1.75;;;;;;;;;;5080101;28;20034;-86
2023/01/25 13:11:26;;;;;;;3.42;2.72;;;;;;;;;;5081544;28;20557;-87
2023/01/25 13:13:51;;;;;;;4.32;2.15;;;;;;;;;;5060341;28;20065;-87
2023/01/25 13:16:28;;;;;;;2.65;1.58;;;;;;;;;;5085671;28;20077;-87
2023/01/25 13:18:54;;;;;;;1.50;1.40;;;;;;;;;;5081753;28;20484;-86
2023/01/25 13:21:38;;;;;;;2.38;1.70;;;;;;;;;;5081016;28;20025;-88
2023/01/25 13:24:13;;;;;;;1.17;1.08;;;;;;;;;;5060151;28;20168;-88
2023/01/25 13:26:51;;;;;;;1.27;1.17;;;;;;;;;;5090622;28;20020;-88
2023/01/25 13:29:33;;;;;;;2.65;1.38;;;;;;;;;;5082364;28;20362;-87
2023/01/25 13:32:00;;;;;;;2.90;1.50;;;;;;;;;;5064475;28;20024;-88
2023/01/25 13:34:34;;;;;;;1.70;1.45;;;;;;;;;;5081718;28;20098;-88
2023/01/25 13:37:14;;;;;;;1.80;1.60;;;;;;;;;;5075991;28;20076;-87
2023/01/25 13:39:40;;;;;;;;;;;;;;;;;;5061395;28;20035;-87
2023/01/25 13:42:09;;;;;;;2.33;2.13;;;;;;;;;;5069279;28;20315;-89
2023/01/25 13:44:42;;;;;;;2.72;2.13;;;;;;;;;;5078973;28;20476;-87
2023/01/25 13:47:11;;;;;;;2.25;1.45;;;;;;;;;;5079628;28;20427;-87
2023/01/25 13:49:45;;;;;;;2.50;1.90;;;;;;;;;;5069814;28;20020;-86
2023/01/25 13:52:17;;;;;;;2.17;1.98;;;;;;;;;;5060622;28;20431;-86
2023/01/25 13:54:43;;;;;;;1.50;1.35;;;;;;;;;;5079666;28;20020;-86
2023/01/25 13:57:18;;;;;;;3.47;2.17;;;;;;;;;;5083291;28;20023;-87
2023/01/25 13:59:43;;;;;;;2.53;2.03;;;;;;;;;;5084043;28;20070;-87
2023/01/25 14:02:19;;;;;;;3.08;1.95;;;;;;;;;;5085972;28;20028;-87
2023/01/25 14:04:49;;;;;;;5.25;1.73;;;;;;;;;;5059982;28;20040;-86
2023/01/25 14:07:20;;;;;;;3.00;1.70;;;;;;;;;;5079230;28;20097;-87
2023/01/25 14:09:47;;;;;;;2.05;1.90;;;;;;;;;;5083495;28;20036;-88
2023/01/25 14:12:33;;;;;;;4.90;2.58;;;;;;;;;;5086202;28;20038;-85
2023/01/25 14:15:16;;;;;;;4.75;2.75;;;;;;;;;;5060704;28;20472;-86
2023/01/25 14:17:41;;;;;;;2.92;2.35;;;;;;;;;;5080233;28;20069;-86
2023/01/25 14:20:17;;;;;;;5.82;3.10;;;;;;;;;;5087036;28;20099;-85
2023/01/25 14:22:47;;;;;;;1.77;1.52;;;;;;;;;;5063339;28;20392;-86
2023/01/25 14:25:15;;;;;;;5.10;2.63;;;;;;;;;;5079593;28;20477;-86
2023/01/25 14:27:53;;;;;;;2.30;1.80;;;;;;;;;;5061333;28;20021;-86
2023/01/25 14:30:32;;;;;;;4.95;3.10;;;;;;;;;;5060772;28;20034;-87
2023/01/25 14:33:20;;;;;;;8.27;3.20;;;;;;;;;;5078653;28;20028;-87
2023/01/25 14:35:46;;;;;;;3.53;2.45;;;;;;;;;;5062569;28;20361;-85
2023/01/25 14:38:22;;;;;;;3.17;2.17;;;;;;;;;;5077361;28;20221;-86
2023/01/25 14:40:49;;;;;;;2.50;2.10;;;;;;;;;;5079081;28;20346;-86
2023/01/25 14:43:16;;;;;;;3.40;2.40;;;;;;;;;;5067624;28;20026;-89
2023/01/25 14:45:42;;;;;;;4.35;3.00;;;;;;;;;;5061997;28;20047;-86
2023/01/25 14:48:43;;;;;;;2.88;2.53;;;;;;;;;;5082347;28;20031;-86
2023/01/25 14:51:26;;;;;;;6.68;3.47;;;;;;;;;;5020834;28;20360;-87
2023/01/25 14:54:14;;;;;;;5.38;2.67;;;;;;;;;;5074977;28;20036;-84
2023/01/25 14:56:48;;;;;;;3.65;2.38;;;;;;;;;;5064118;28;20027;-87
2023/01/25 14:59:31;;;;;;;4.88;2.53;;;;;;;;;;5077216;28;20024;-85
2023/01/25 15:02:20;;;;;;;4.13;1.80;;;;;;;;;;5058739;28;20369;-88
2023/01/25 15:05:01;;;;;;;1.45;1.17;;;;;;;;;;5077680;28;20044;-85
2023/01/25 15:07:49;;;;;;;2.88;1.90;;;;;;;;;;5061018;28;20070;-87
2023/01/25 15:10:25;;;;;;;3.58;2.47;;;;;;;;;;5079962;28;20059;-86
2023/01/25 15:12:56;;;;;;;4.13;1.80;;;;;;;;;;5057617;28;20521;-84
2023/01/25 15:15:23;;;;;;;3.50;2.58;;;;;;;;;;5063130;28;20028;-85
2023/01/25 15:17:49;;;;;;;3.60;2.85;;;;;;;;;;5063118;28;20027;-84
2023/01/25 15:20:30;;;;;;;2.45;2.10;;;;;;;;;;5080596;28;20511;-86